Time;durP1;ratioP1;P1;durP2;ratioP2;P2;SDS_P1;SDS_P2;PMS_P1;PMS_P2;Temp;Humidity;BMP_temperature;BMP_pressure;BME280_temperature;BME280_humidity;BME280_pressure;Samples;Min_cycle;Max_cycle;Signal;HPM_P1;HPM_P2
2021/05/08 00:00:51;;;;;;;4.70;2.40;;;1.40;99.90;;;;;;2074210;28;20224;-68
2021/05/08 00:01:52;;;;;;;3.83;2.67;;;1.40;99.90;;;;;;2074150;28;20181;-68
2021/05/08 00:02:53;;;;;;;4.00;2.80;;;1.30;99.90;;;;;;2074226;28;20174;-67
2021/05/08 00:03:53;;;;;;;2.93;2.30;;;1.30;99.90;;;;;;2074162;28;20178;-68
2021/05/08 00:04:54;;;;;;;2.90;2.60;;;1.30;99.90;;;;;;2074093;28;20629;-67
2021/05/08 00:05:55;;;;;;;5.20;2.40;;;1.30;99.90;;;;;;2074318;28;20178;-68
2021/05/08 00:06:58;;;;;;;3.33;2.40;;;1.30;99.90;;;;;;2076612;28;20190;-68
2021/05/08 00:07:59;;;;;;;3.97;2.60;;;1.20;99.90;;;;;;2077134;28;20182;-68
2021/05/08 00:09:07;;;;;;;3.13;2.60;;;1.20;99.90;;;;;;2077861;28;20185;-68
2021/05/08 00:10:14;;;;;;;4.43;2.60;;;1.30;99.90;;;;;;2077419;28;20166;-68
2021/05/08 00:11:14;;;;;;;3.60;2.75;;;1.30;99.90;;;;;;2074765;28;20268;-67
2021/05/08 00:12:15;;;;;;;3.70;2.50;;;1.20;99.90;;;;;;2073745;28;20190;-67
2021/05/08 00:13:16;;;;;;;2.70;2.40;;;1.30;99.90;;;;;;2074140;28;20189;-68
2021/05/08 00:14:17;;;;;;;3.57;2.40;;;1.20;99.90;;;;;;2073840;28;20666;-67
2021/05/08 00:15:18;;;;;;;4.50;2.33;;;1.30;99.90;;;;;;2073735;28;20177;-68
2021/05/08 00:16:18;;;;;;;3.57;2.50;;;1.30;99.90;;;;;;2073057;28;20178;-67
2021/05/08 00:17:19;;;;;;;5.57;2.50;;;1.30;99.90;;;;;;2073128;28;20289;-68
2021/05/08 00:18:20;;;;;;;3.53;2.50;;;1.30;99.90;;;;;;2073850;28;20272;-68
2021/05/08 00:19:22;;;;;;;4.53;2.30;;;1.20;99.90;;;;;;2073808;28;20277;-68
2021/05/08 00:20:23;;;;;;;2.80;2.50;;;1.20;99.90;;;;;;2073180;28;20273;-67
2021/05/08 00:21:24;;;;;;;3.50;2.53;;;1.20;99.90;;;;;;2072705;28;20212;-67
2021/05/08 00:22:24;;;;;;;3.63;2.53;;;1.20;99.90;;;;;;2073108;28;20170;-67
2021/05/08 00:23:26;;;;;;;2.87;2.50;;;1.20;99.90;;;;;;2073132;28;20299;-67
2021/05/08 00:24:27;;;;;;;2.63;2.42;;;1.20;99.90;;;;;;2073701;28;20615;-67
2021/05/08 00:25:28;;;;;;;4.67;2.27;;;1.10;99.90;;;;;;2073630;28;20185;-67
2021/05/08 00:26:28;;;;;;;2.33;2.00;;;1.10;99.90;;;;;;2073743;28;20204;-68
2021/05/08 00:27:29;;;;;;;3.13;2.50;;;1.20;99.90;;;;;;2073561;28;20182;-67
2021/05/08 00:28:30;;;;;;;2.93;2.43;;;1.10;99.90;;;;;;2073703;28;20185;-68
2021/05/08 00:29:30;;;;;;;4.83;2.80;;;1.20;99.90;;;;;;2073710;28;20272;-68
2021/05/08 00:30:32;;;;;;;3.17;2.60;;;1.20;99.90;;;;;;2073848;28;20614;-67
2021/05/08 00:31:33;;;;;;;4.35;2.60;;;1.20;99.90;;;;;;2073361;28;20187;-68
2021/05/08 00:32:35;;;;;;;3.20;2.40;;;1.10;99.90;;;;;;2073607;28;20182;-67
2021/05/08 00:33:35;;;;;;;4.28;2.50;;;1.10;99.90;;;;;;2073636;28;20191;-68
2021/05/08 00:34:36;;;;;;;3.50;2.57;;;1.10;99.90;;;;;;2073685;28;20220;-68
2021/05/08 00:35:37;;;;;;;5.17;2.50;;;1.10;99.90;;;;;;2073614;28;20253;-68
2021/05/08 00:36:37;;;;;;;3.57;2.57;;;1.20;99.90;;;;;;2073654;28;20184;-67
2021/05/08 00:37:38;;;;;;;2.80;2.30;;;1.20;99.90;;;;;;2073539;28;20320;-68
2021/05/08 00:38:39;;;;;;;3.53;2.57;;;1.20;99.90;;;;;;2073562;28;20209;-68
2021/05/08 00:39:39;;;;;;;4.53;2.60;;;1.20;99.90;;;;;;2073524;28;20213;-67
2021/05/08 00:40:40;;;;;;;2.90;2.27;;;1.20;99.90;;;;;;2073554;28;20207;-68
2021/05/08 00:41:41;;;;;;;3.00;2.23;;;1.20;99.90;;;;;;2073436;28;20174;-67
2021/05/08 00:42:41;;;;;;;5.20;2.73;;;1.20;99.90;;;;;;2073567;28;20192;-67
2021/05/08 00:43:42;;;;;;;3.97;2.53;;;1.20;99.90;;;;;;2081477;28;20189;-68
2021/05/08 00:44:43;;;;;;;3.67;2.27;;;1.20;99.90;;;;;;2081693;28;20672;-68
2021/05/08 00:45:44;;;;;;;3.37;2.27;;;1.20;99.90;;;;;;2081893;28;20260;-68
2021/05/08 00:46:45;;;;;;;4.65;2.63;;;1.20;99.90;;;;;;2081851;28;20177;-68
2021/05/08 00:47:48;;;;;;;2.58;2.25;;;1.10;99.90;;;;;;2081174;28;20685;-68
2021/05/08 00:48:50;;;;;;;3.67;2.60;;;1.20;99.90;;;;;;2080999;28;20176;-67
2021/05/08 00:49:51;;;;;;;4.70;2.67;;;1.10;99.90;;;;;;2081729;28;20227;-68
2021/05/08 00:50:52;;;;;;;2.60;2.30;;;1.10;99.90;;;;;;2081666;28;20655;-68
2021/05/08 00:51:52;;;;;;;2.75;2.30;;;1.20;99.90;;;;;;2080987;28;20184;-68
2021/05/08 00:52:53;;;;;;;3.37;2.37;;;1.20;99.90;;;;;;2081055;28;20255;-68
2021/05/08 00:53:54;;;;;;;2.97;2.40;;;1.20;99.90;;;;;;2080843;28;20613;-68
2021/05/08 00:54:55;;;;;;;2.63;2.30;;;1.20;99.90;;;;;;2081446;28;20687;-68
2021/05/08 00:55:55;;;;;;;3.43;2.80;;;1.20;99.90;;;;;;2081712;28;20184;-67
2021/05/08 00:56:56;;;;;;;3.33;2.70;;;1.20;99.90;;;;;;2081610;28;20223;-67
2021/05/08 00:57:57;;;;;;;4.07;2.50;;;1.30;99.90;;;;;;2081618;28;20604;-67
2021/05/08 00:58:57;;;;;;;4.87;2.40;;;1.20;99.90;;;;;;2081607;28;20177;-68
2021/05/08 00:59:58;;;;;;;3.03;2.27;;;1.20;99.90;;;;;;2081562;28;20168;-68
2021/05/08 01:00:59;;;;;;;8.43;2.50;;;1.20;99.90;;;;;;2080859;28;20213;-67
2021/05/08 01:02:00;;;;;;;4.37;2.50;;;1.20;99.90;;;;;;2072480;28;20236;-68
2021/05/08 01:03:01;;;;;;;3.03;2.45;;;1.20;99.90;;;;;;2072874;28;20260;-67
2021/05/08 01:04:02;;;;;;;3.28;2.30;;;1.10;99.90;;;;;;2081690;28;20192;-68
2021/05/08 01:05:07;;;;;;;3.77;2.53;;;1.10;99.90;;;;;;2081639;28;20234;-67
2021/05/08 01:06:08;;;;;;;4.25;2.70;;;1.10;99.90;;;;;;2080820;28;20192;-67
2021/05/08 01:07:09;;;;;;;4.70;2.60;;;1.20;99.90;;;;;;2080885;28;20575;-68
2021/05/08 01:08:09;;;;;;;2.70;2.37;;;1.20;99.90;;;;;;2080970;28;20191;-68
2021/05/08 01:09:10;;;;;;;3.13;2.40;;;1.20;99.90;;;;;;2081578;28;20526;-68
2021/05/08 01:10:14;;;;;;;4.03;2.57;;;1.20;99.90;;;;;;2081583;28;20242;-67
2021/05/08 01:11:16;;;;;;;4.20;2.47;;;1.20;99.90;;;;;;2080597;28;20188;-67
2021/05/08 01:12:17;;;;;;;3.03;2.20;;;1.20;99.90;;;;;;2080916;28;20591;-67
2021/05/08 01:13:18;;;;;;;3.25;2.22;;;1.10;99.90;;;;;;2080809;28;20184;-67
2021/05/08 01:14:18;;;;;;;2.40;2.00;;;1.20;99.90;;;;;;2080836;28;20703;-67
2021/05/08 01:15:20;;;;;;;3.20;2.07;;;1.10;99.90;;;;;;2080686;28;20207;-68
2021/05/08 01:16:21;;;;;;;4.65;2.53;;;1.10;99.90;;;;;;2080649;28;20184;-68
2021/05/08 01:17:21;;;;;;;5.50;2.57;;;1.10;99.90;;;;;;2081411;28;20191;-67
2021/05/08 01:18:22;;;;;;;3.13;2.30;;;1.00;99.90;;;;;;2081567;28;20211;-68
2021/05/08 01:19:26;;;;;;;2.47;2.27;;;1.00;99.90;;;;;;2080839;28;20688;-67
2021/05/08 01:20:27;;;;;;;4.65;2.78;;;1.00;99.90;;;;;;2080882;28;20177;-67
2021/05/08 01:21:27;;;;;;;5.07;2.40;;;1.00;99.90;;;;;;2081203;28;20223;-68
2021/05/08 01:22:28;;;;;;;3.57;2.30;;;1.00;99.90;;;;;;2080699;28;20187;-67
2021/05/08 01:23:29;;;;;;;4.57;2.50;;;0.90;99.90;;;;;;2080765;28;20181;-68
2021/05/08 01:24:30;;;;;;;2.50;2.08;;;0.90;99.90;;;;;;2081457;28;20201;-67
2021/05/08 01:25:31;;;;;;;4.43;2.10;;;0.90;99.90;;;;;;2080791;28;20181;-67
2021/05/08 01:26:32;;;;;;;3.13;2.20;;;0.80;99.90;;;;;;2080815;28;20180;-67
2021/05/08 01:27:33;;;;;;;4.67;2.40;;;0.90;99.90;;;;;;2081184;28;20223;-68
2021/05/08 01:28:33;;;;;;;2.33;2.13;;;0.80;99.90;;;;;;2081426;28;20271;-67
2021/05/08 01:29:34;;;;;;;3.37;2.57;;;0.90;99.90;;;;;;2081836;28;20567;-68
2021/05/08 01:30:37;;;;;;;4.90;2.50;;;0.80;99.90;;;;;;2081919;28;20208;-68
2021/05/08 01:31:37;;;;;;;3.65;2.35;;;0.80;99.90;;;;;;2081440;28;20230;-68
2021/05/08 01:32:38;;;;;;;4.17;2.40;;;0.80;99.90;;;;;;2081393;28;20192;-68
2021/05/08 01:33:41;;;;;;;3.63;2.57;;;0.80;99.90;;;;;;2081575;28;20177;-68
2021/05/08 01:34:42;;;;;;;5.40;2.42;;;0.80;99.90;;;;;;2080720;28;20197;-68
2021/05/08 01:35:42;;;;;;;3.27;2.50;;;0.80;99.90;;;;;;2081013;28;20533;-67
2021/05/08 01:36:43;;;;;;;5.63;2.27;;;0.80;99.90;;;;;;2081697;28;20615;-68
2021/05/08 01:37:45;;;;;;;2.90;2.27;;;0.80;99.90;;;;;;2081679;28;20176;-68
2021/05/08 01:38:46;;;;;;;3.15;2.20;;;0.80;99.90;;;;;;2080829;28;20192;-68
2021/05/08 01:39:47;;;;;;;4.00;2.30;;;0.70;99.90;;;;;;2081058;28;20204;-68
2021/05/08 01:40:59;;;;;;;4.27;2.70;;;0.70;99.90;;;;;;2081620;28;20181;-68
2021/05/08 01:41:59;;;;;;;4.65;2.42;;;0.60;99.90;;;;;;2080729;28;20191;-68
2021/05/08 01:43:00;;;;;;;4.23;2.47;;;0.60;99.90;;;;;;2072352;28;20558;-68
2021/05/08 01:44:02;;;;;;;4.03;2.20;;;0.60;99.90;;;;;;2080751;28;20560;-68
2021/05/08 01:45:13;;;;;;;2.75;2.30;;;0.50;99.90;;;;;;2080970;28;20188;-67
2021/05/08 01:46:14;;;;;;;3.92;2.47;;;0.50;99.90;;;;;;2081033;28;20180;-68
2021/05/08 01:47:15;;;;;;;5.63;2.30;;;0.50;99.90;;;;;;2081042;28;20271;-68
2021/05/08 01:48:15;;;;;;;2.93;2.10;;;0.50;99.90;;;;;;2081639;28;20230;-68
2021/05/08 01:49:16;;;;;;;2.97;2.20;;;0.50;99.90;;;;;;2080840;28;20605;-68
2021/05/08 01:50:24;;;;;;;3.83;2.70;;;0.50;99.90;;;;;;2081147;28;20286;-68
2021/05/08 01:51:24;;;;;;;5.13;2.38;;;0.50;99.90;;;;;;2081408;28;20222;-67
2021/05/08 01:52:25;;;;;;;2.70;2.10;;;0.50;99.90;;;;;;2081531;28;20679;-68
2021/05/08 01:53:26;;;;;;;3.63;2.30;;;0.40;99.90;;;;;;2081567;28;20227;-68
2021/05/08 01:54:26;;;;;;;2.03;1.83;;;0.40;99.90;;;;;;2080548;28;20251;-67
2021/05/08 01:55:28;;;;;;;3.17;2.43;;;0.50;99.90;;;;;;2080843;28;20177;-68
2021/05/08 01:56:31;;;;;;;3.95;2.15;;;0.40;99.90;;;;;;2081503;28;20207;-68
2021/05/08 01:57:38;;;;;;;3.67;2.35;;;0.40;99.90;;;;;;2080677;28;20815;-67
2021/05/08 01:58:39;;;;;;;6.20;3.05;;;0.40;99.90;;;;;;2081045;28;20240;-68
2021/05/08 01:59:39;;;;;;;2.37;2.07;;;0.30;99.90;;;;;;2080714;28;20660;-67
2021/05/08 02:00:46;;;;;;;4.40;2.33;;;0.30;99.90;;;;;;2081303;28;20242;-67
2021/05/08 02:01:47;;;;;;;3.15;2.22;;;0.30;99.90;;;;;;2080430;28;20175;-68
2021/05/08 02:02:50;;;;;;;3.87;2.50;;;0.40;99.90;;;;;;2080765;28;20682;-67
2021/05/08 02:03:51;;;;;;;2.40;2.20;;;0.40;99.90;;;;;;2080688;28;20184;-68
2021/05/08 02:04:51;;;;;;;2.40;2.15;;;0.40;99.90;;;;;;2080643;28;20216;-68
2021/05/08 02:05:52;;;;;;;2.40;2.20;;;0.40;99.90;;;;;;2081077;28;20181;-68
2021/05/08 02:06:53;;;;;;;4.00;2.30;;;0.40;99.90;;;;;;2081329;28;20173;-68
2021/05/08 02:07:54;;;;;;;3.75;2.00;;;0.50;99.90;;;;;;2080629;28;20192;-68
2021/05/08 02:08:55;;;;;;;3.60;2.37;;;0.50;99.90;;;;;;2080756;28;20203;-67
2021/05/08 02:09:55;;;;;;;4.47;2.70;;;0.60;99.90;;;;;;2081326;28;20185;-68
2021/05/08 02:10:56;;;;;;;3.57;2.30;;;0.50;99.90;;;;;;2081264;28;20195;-68
2021/05/08 02:11:57;;;;;;;4.33;2.43;;;0.50;99.90;;;;;;2081266;28;20185;-67
2021/05/08 02:12:58;;;;;;;4.97;2.70;;;0.50;99.90;;;;;;2076342;28;20649;-68
2021/05/08 02:13:59;;;;;;;3.22;2.28;;;0.50;99.90;;;;;;2080614;28;20584;-68
2021/05/08 02:15:00;;;;;;;3.37;2.27;;;0.50;99.90;;;;;;2080523;28;20283;-67
2021/05/08 02:16:01;;;;;;;3.00;2.20;;;0.50;99.90;;;;;;2081292;28;20267;-68
2021/05/08 02:17:01;;;;;;;2.90;2.30;;;0.50;99.90;;;;;;2081036;28;20636;-68
2021/05/08 02:18:07;;;;;;;3.67;2.20;;;0.50;99.90;;;;;;2081400;28;20243;-68
2021/05/08 02:19:07;;;;;;;4.43;2.13;;;0.50;99.90;;;;;;2080576;28;20192;-69
2021/05/08 02:20:11;;;;;;;2.23;1.93;;;0.50;99.90;;;;;;2080662;28;20317;-68
2021/05/08 02:21:11;;;;;;;4.72;2.15;;;0.50;99.90;;;;;;2080274;28;20259;-67
2021/05/08 02:22:12;;;;;;;4.97;2.30;;;0.40;99.90;;;;;;2080496;28;20747;-68
2021/05/08 02:23:15;;;;;;;3.23;2.60;;;0.40;99.90;;;;;;2081051;28;20234;-68
2021/05/08 02:24:16;;;;;;;2.83;2.20;;;0.40;99.90;;;;;;2080399;28;20200;-68
2021/05/08 02:25:17;;;;;;;3.67;2.33;;;0.40;99.90;;;;;;2080644;28;20198;-68
2021/05/08 02:26:18;;;;;;;2.28;2.05;;;0.40;99.90;;;;;;2081064;28;20278;-68
2021/05/08 02:27:19;;;;;;;4.30;2.40;;;0.40;99.90;;;;;;2080822;28;20204;-68
2021/05/08 02:28:19;;;;;;;3.30;2.25;;;0.30;99.90;;;;;;2081074;28;20184;-68
2021/05/08 02:29:20;;;;;;;3.40;2.30;;;0.30;99.90;;;;;;2081040;28;20194;-67
2021/05/08 02:30:30;;;;;;;2.73;2.10;;;0.30;99.90;;;;;;2081137;28;20612;-68
2021/05/08 02:31:30;;;;;;;4.22;2.20;;;0.30;99.90;;;;;;2080799;28;20241;-67
2021/05/08 02:32:31;;;;;;;5.63;2.00;;;0.20;99.90;;;;;;2080752;28;20264;-68
2021/05/08 02:33:32;;;;;;;2.83;2.30;;;0.20;99.90;;;;;;2080966;28;20179;-68
2021/05/08 02:34:33;;;;;;;5.63;2.60;;;0.20;99.90;;;;;;2080966;28;20227;-67
2021/05/08 02:35:35;;;;;;;2.30;1.97;;;0.20;99.90;;;;;;2080373;28;20191;-68
2021/05/08 02:36:36;;;;;;;2.45;2.20;;;0.10;99.90;;;;;;2080435;28;20219;-68
2021/05/08 02:37:37;;;;;;;2.67;2.20;;;0.20;99.90;;;;;;2080485;28;20189;-68
2021/05/08 02:38:38;;;;;;;3.22;2.50;;;0.10;99.90;;;;;;2081028;28;20230;-68
2021/05/08 02:39:39;;;;;;;2.77;2.40;;;0.10;99.90;;;;;;2080956;28;20647;-68
2021/05/08 02:40:40;;;;;;;2.93;2.30;;;0.10;99.90;;;;;;2080842;28;20191;-67
2021/05/08 02:41:40;;;;;;;3.17;2.20;;;0.00;99.90;;;;;;2079916;28;20238;-68
2021/05/08 02:42:41;;;;;;;2.90;2.43;;;0.00;99.90;;;;;;2080270;28;20176;-68
2021/05/08 02:43:42;;;;;;;2.85;2.30;;;0.00;99.90;;;;;;2079999;28;20294;-69
2021/05/08 02:44:43;;;;;;;3.33;2.30;;;0.00;99.90;;;;;;2072014;28;20266;-69
2021/05/08 02:45:44;;;;;;;2.97;2.10;;;0.00;99.90;;;;;;2072132;28;20185;-68
2021/05/08 02:46:45;;;;;;;2.53;2.33;;;0.00;99.90;;;;;;2080963;28;20268;-69
2021/05/08 02:47:47;;;;;;;3.15;2.50;;;0.00;99.90;;;;;;2080882;28;20192;-69
2021/05/08 02:48:48;;;;;;;4.20;2.30;;;0.00;99.90;;;;;;2079935;28;20184;-68
2021/05/08 02:49:51;;;;;;;3.17;2.60;;;0.00;99.90;;;;;;2080301;28;20226;-69
2021/05/08 02:50:52;;;;;;;6.72;2.90;;;0.00;99.90;;;;;;2080354;28;20177;-69
2021/05/08 02:51:53;;;;;;;3.07;2.63;;;0.00;99.90;;;;;;2071888;28;20227;-69
2021/05/08 02:52:53;;;;;;;5.03;2.70;;;-0.10;99.90;;;;;;2080419;28;20181;-69
2021/05/08 02:53:54;;;;;;;2.87;2.47;;;-0.10;99.90;;;;;;2081366;28;20188;-69
2021/05/08 02:54:55;;;;;;;3.30;2.47;;;-0.10;99.90;;;;;;2081640;28;20200;-69
2021/05/08 02:55:55;;;;;;;3.23;2.33;;;-0.20;99.90;;;;;;2080883;28;20235;-69
2021/05/08 02:56:56;;;;;;;3.53;2.30;;;-0.10;99.90;;;;;;2080892;28;20177;-69
2021/05/08 02:58:01;;;;;;;4.50;2.23;;;-0.20;99.90;;;;;;2080970;28;20284;-69
2021/05/08 02:59:02;;;;;;;4.40;2.50;;;-0.10;99.90;;;;;;2080165;28;20203;-68
2021/05/08 03:00:10;;;;;;;2.53;2.17;;;-0.20;99.90;;;;;;2080132;28;20663;-69
2021/05/08 03:01:11;;;;;;;3.17;2.33;;;-0.10;99.90;;;;;;2080017;28;20218;-68
2021/05/08 03:02:11;;;;;;;2.60;2.40;;;-0.10;99.90;;;;;;2080365;28;20184;-68
2021/05/08 03:03:12;;;;;;;3.47;2.50;;;-0.20;99.90;;;;;;2080960;28;20193;-69
2021/05/08 03:04:13;;;;;;;3.03;2.30;;;-0.20;99.90;;;;;;2080976;28;20203;-69
2021/05/08 03:05:14;;;;;;;2.93;2.60;;;-0.20;99.90;;;;;;2080680;28;20190;-69
2021/05/08 03:06:14;;;;;;;4.28;2.80;;;-0.30;99.90;;;;;;2080949;28;20218;-69
2021/05/08 03:07:15;;;;;;;3.57;2.33;;;-0.30;99.90;;;;;;2081806;28;20233;-69
2021/05/08 03:08:16;;;;;;;2.97;2.60;;;-0.30;99.90;;;;;;2082290;28;20208;-69
2021/05/08 03:09:16;;;;;;;3.83;2.30;;;-0.20;99.90;;;;;;2081204;28;20188;-69
2021/05/08 03:10:17;;;;;;;5.07;2.80;;;-0.30;99.90;;;;;;2080988;28;20659;-68
2021/05/08 03:11:18;;;;;;;4.13;2.60;;;-0.30;99.90;;;;;;2080563;28;20189;-68
2021/05/08 03:12:19;;;;;;;2.83;2.40;;;-0.30;99.90;;;;;;2080634;28;20620;-69
2021/05/08 03:13:20;;;;;;;2.67;2.28;;;-0.30;99.90;;;;;;2080542;28;20315;-69
2021/05/08 03:14:20;;;;;;;2.93;2.57;;;-0.30;99.90;;;;;;2080570;28;20681;-69
2021/05/08 03:15:22;;;;;;;3.30;2.30;;;-0.30;99.90;;;;;;2080506;28;20184;-69
2021/05/08 03:16:23;;;;;;;4.78;2.53;;;-0.30;99.90;;;;;;2080517;28;20267;-69
2021/05/08 03:17:24;;;;;;;2.80;2.40;;;-0.30;99.90;;;;;;2080608;28;20190;-69
2021/05/08 03:18:25;;;;;;;3.47;2.30;;;-0.30;99.90;;;;;;2080620;28;20228;-69
2021/05/08 03:19:25;;;;;;;2.93;2.60;;;-0.30;99.90;;;;;;2080425;28;20488;-69
2021/05/08 03:20:26;;;;;;;4.70;2.50;;;-0.30;99.90;;;;;;2080671;28;20184;-68
2021/05/08 03:21:27;;;;;;;3.93;2.57;;;-0.30;99.90;;;;;;2079403;28;20284;-69
2021/05/08 03:22:27;;;;;;;4.03;2.40;;;-0.30;99.90;;;;;;2079937;28;20183;-69
2021/05/08 03:23:28;;;;;;;4.47;2.57;;;-0.40;99.90;;;;;;2080516;28;20592;-68
2021/05/08 03:24:29;;;;;;;4.83;2.87;;;-0.30;99.90;;;;;;2080548;28;20199;-69
2021/05/08 03:25:30;;;;;;;5.57;2.60;;;-0.40;99.90;;;;;;2079847;28;20180;-69
2021/05/08 03:26:31;;;;;;;3.43;2.70;;;-0.40;99.90;;;;;;2079820;28;20179;-69
2021/05/08 03:27:32;;;;;;;3.67;2.40;;;-0.40;99.90;;;;;;2079951;28;20203;-68
2021/05/08 03:28:32;;;;;;;3.43;2.50;;;-0.40;99.90;;;;;;2080020;28;20183;-69
2021/05/08 03:29:33;;;;;;;3.50;2.53;;;-0.50;99.90;;;;;;2080476;28;20182;-69
2021/05/08 03:30:34;;;;;;;3.93;2.73;;;-0.50;99.90;;;;;;2080645;28;20262;-68
2021/05/08 03:31:35;;;;;;;3.23;2.43;;;-0.50;99.90;;;;;;2080316;28;20626;-69
2021/05/08 03:32:35;;;;;;;2.60;2.30;;;-0.50;99.90;;;;;;2080524;28;20194;-69
2021/05/08 03:33:36;;;;;;;3.27;2.27;;;-0.50;99.90;;;;;;2080603;28;20241;-69
2021/05/08 03:34:37;;;;;;;3.67;2.50;;;-0.50;99.90;;;;;;2080494;28;20282;-69
2021/05/08 03:35:37;;;;;;;2.93;2.20;;;-0.50;99.90;;;;;;2080606;28;20556;-68
2021/05/08 03:36:38;;;;;;;4.43;2.50;;;-0.50;99.90;;;;;;2080634;28;20225;-68
2021/05/08 03:37:39;;;;;;;3.63;2.30;;;-0.50;99.90;;;;;;2080539;28;20214;-69
2021/05/08 03:38:39;;;;;;;5.57;2.23;;;-0.60;99.90;;;;;;2080607;28;20184;-69
2021/05/08 03:39:40;;;;;;;3.50;2.30;;;-0.50;99.90;;;;;;2080610;28;20265;-69
2021/05/08 03:40:41;;;;;;;4.90;2.20;;;-0.50;99.90;;;;;;2080510;28;20576;-69
2021/05/08 03:41:45;;;;;;;4.37;2.37;;;-0.50;99.90;;;;;;2080415;28;20268;-69
2021/05/08 03:42:45;;;;;;;3.78;2.42;;;-0.50;99.90;;;;;;2080406;28;20272;-69
2021/05/08 03:43:46;;;;;;;3.30;2.00;;;-0.50;99.90;;;;;;2080601;28;20256;-69
2021/05/08 03:44:47;;;;;;;3.60;2.27;;;-0.50;99.90;;;;;;2080510;28;20182;-69
2021/05/08 03:45:51;;;;;;;3.77;2.57;;;-0.50;99.90;;;;;;2080651;28;20176;-68
2021/05/08 03:46:51;;;;;;;3.92;2.45;;;-0.50;99.90;;;;;;2080514;28;20226;-68
2021/05/08 03:47:52;;;;;;;4.13;2.70;;;-0.60;99.90;;;;;;2080592;28;20181;-69
2021/05/08 03:48:53;;;;;;;3.40;2.40;;;-0.50;99.90;;;;;;2079657;28;20183;-68
2021/05/08 03:49:53;;;;;;;3.53;2.47;;;-0.50;99.90;;;;;;2079974;28;20574;-69
2021/05/08 03:50:54;;;;;;;5.60;2.33;;;-0.50;99.90;;;;;;2080470;28;20168;-69
2021/05/08 03:52:03;;;;;;;3.67;2.50;;;-0.60;99.90;;;;;;2080398;28;20326;-69
2021/05/08 03:53:04;;;;;;;3.05;2.17;;;-0.60;99.90;;;;;;2080431;28;20179;-69
2021/05/08 03:54:05;;;;;;;3.10;2.50;;;-0.60;99.90;;;;;;2080178;28;20722;-68
2021/05/08 03:55:06;;;;;;;3.90;1.95;;;-0.60;99.90;;;;;;2080446;28;20214;-69
2021/05/08 03:56:08;;;;;;;2.45;2.10;;;-0.60;99.90;;;;;;2080486;28;20195;-68
2021/05/08 03:57:09;;;;;;;4.75;2.75;;;-0.60;99.90;;;;;;2080416;28;20264;-68
2021/05/08 03:58:09;;;;;;;2.90;2.47;;;-0.70;99.90;;;;;;2080610;28;20191;-69
2021/05/08 03:59:10;;;;;;;3.23;2.30;;;-0.70;99.90;;;;;;2080299;28;20184;-69
2021/05/08 04:00:12;;;;;;;4.10;2.43;;;-0.70;99.90;;;;;;2080520;28;20230;-68
2021/05/08 04:01:12;;;;;;;2.75;2.35;;;-0.70;99.90;;;;;;2079450;28;20346;-69
2021/05/08 04:02:13;;;;;;;3.27;2.37;;;-0.70;99.90;;;;;;2079856;28;20273;-69
2021/05/08 04:03:14;;;;;;;3.70;2.57;;;-0.60;99.90;;;;;;2080437;28;20179;-69
2021/05/08 04:04:15;;;;;;;4.43;2.70;;;-0.60;99.90;;;;;;2080469;28;20275;-68
2021/05/08 04:05:15;;;;;;;4.20;2.40;;;-0.60;99.90;;;;;;2080335;28;20206;-68
2021/05/08 04:06:16;;;;;;;3.37;2.30;;;-0.60;99.90;;;;;;2081567;28;20182;-69
2021/05/08 04:07:17;;;;;;;3.10;2.10;;;-0.60;99.90;;;;;;2081997;28;20310;-69
2021/05/08 04:08:18;;;;;;;2.50;2.30;;;-0.60;99.90;;;;;;2081971;28;20191;-69
2021/05/08 04:09:19;;;;;;;4.05;2.40;;;-0.60;99.90;;;;;;2081924;28;20648;-68
2021/05/08 04:10:19;;;;;;;4.13;2.20;;;-0.50;99.90;;;;;;2081825;28;20315;-68
2021/05/08 04:11:20;;;;;;;5.00;2.40;;;-0.50;99.90;;;;;;2081695;28;20326;-69
2021/05/08 04:12:21;;;;;;;3.33;2.60;;;-0.50;99.90;;;;;;2081969;28;20184;-68
2021/05/08 04:13:22;;;;;;;4.13;2.17;;;-0.50;99.90;;;;;;2081439;28;20177;-68
2021/05/08 04:14:22;;;;;;;3.83;2.80;;;-0.50;99.90;;;;;;2081353;28;20204;-69
2021/05/08 04:15:23;;;;;;;4.80;2.80;;;-0.40;99.90;;;;;;2081746;28;20559;-68
2021/05/08 04:16:24;;;;;;;3.73;2.60;;;-0.40;99.90;;;;;;2081957;28;20188;-68
2021/05/08 04:17:24;;;;;;;3.03;2.50;;;-0.40;99.90;;;;;;2081862;28;20213;-69
2021/05/08 04:18:25;;;;;;;3.67;2.50;;;-0.40;99.90;;;;;;2081948;28;20217;-68
2021/05/08 04:19:26;;;;;;;3.77;2.80;;;-0.40;99.90;;;;;;2081884;28;20214;-69
2021/05/08 04:20:26;;;;;;;3.20;2.40;;;-0.40;99.90;;;;;;2081839;28;20175;-68
2021/05/08 04:21:27;;;;;;;2.70;2.20;;;-0.30;99.90;;;;;;2081638;28;20664;-69
2021/05/08 04:22:28;;;;;;;4.83;2.50;;;-0.30;99.90;;;;;;2081835;28;20268;-69
2021/05/08 04:23:28;;;;;;;3.17;2.40;;;-0.30;99.90;;;;;;2081858;28;20267;-68
2021/05/08 04:24:29;;;;;;;3.87;2.40;;;-0.30;99.90;;;;;;2081012;28;20291;-69
2021/05/08 04:25:30;;;;;;;2.63;2.10;;;-0.30;99.90;;;;;;2081136;28;20796;-68
2021/05/08 04:26:31;;;;;;;2.87;2.10;;;-0.30;99.90;;;;;;2081640;28;20177;-69
2021/05/08 04:27:32;;;;;;;3.60;2.23;;;-0.30;99.90;;;;;;2081909;28;20242;-68
2021/05/08 04:28:32;;;;;;;4.43;2.60;;;-0.30;99.90;;;;;;2081757;28;20188;-69
2021/05/08 04:29:33;;;;;;;5.23;2.50;;;-0.30;99.90;;;;;;2081903;28;20200;-69
2021/05/08 04:30:34;;;;;;;4.23;2.60;;;-0.30;99.90;;;;;;2081714;28;20635;-68
2021/05/08 04:31:35;;;;;;;3.53;2.67;;;-0.30;99.90;;;;;;2081517;28;20189;-69
2021/05/08 04:32:35;;;;;;;2.83;2.40;;;-0.20;99.90;;;;;;2081788;28;20273;-69
2021/05/08 04:33:36;;;;;;;2.67;2.47;;;-0.20;99.90;;;;;;2081789;28;20701;-69
2021/05/08 04:34:37;;;;;;;2.13;1.93;;;-0.20;99.90;;;;;;2081683;28;20211;-68
2021/05/08 04:35:38;;;;;;;2.67;2.20;;;-0.20;99.90;;;;;;2081826;28;20188;-68
2021/05/08 04:36:38;;;;;;;2.20;2.00;;;-0.20;99.90;;;;;;2081674;28;20613;-68
2021/05/08 04:37:39;;;;;;;2.53;2.10;;;-0.10;99.90;;;;;;2081658;28;20180;-69
2021/05/08 04:38:40;;;;;;;4.20;2.50;;;-0.20;99.90;;;;;;2081613;28;20180;-68
2021/05/08 04:39:41;;;;;;;2.83;2.50;;;-0.20;99.90;;;;;;2081184;28;20206;-69
2021/05/08 04:40:42;;;;;;;4.20;2.43;;;-0.20;99.90;;;;;;2081060;28;20238;-69
2021/05/08 04:41:42;;;;;;;2.97;2.30;;;-0.20;99.90;;;;;;2081573;28;20204;-68
2021/05/08 04:42:43;;;;;;;4.77;2.27;;;-0.10;99.90;;;;;;2081528;28;20179;-68
2021/05/08 04:43:44;;;;;;;4.17;2.47;;;-0.10;99.90;;;;;;2081796;28;20272;-69
2021/05/08 04:44:44;;;;;;;4.33;2.37;;;-0.10;99.90;;;;;;2081749;28;20704;-69
2021/05/08 04:45:45;;;;;;;3.67;2.47;;;0.00;99.90;;;;;;2081824;28;20203;-69
2021/05/08 04:46:48;;;;;;;2.80;2.20;;;0.00;99.90;;;;;;2081712;28;20218;-69
2021/05/08 04:47:49;;;;;;;3.40;2.55;;;0.10;99.90;;;;;;2090168;28;20235;-68
2021/05/08 04:48:54;;;;;;;3.33;2.83;;;0.10;99.90;;;;;;2090355;28;20254;-69
2021/05/08 04:49:58;;;;;;;3.28;2.25;;;0.10;99.90;;;;;;2082984;28;20260;-69
2021/05/08 04:50:59;;;;;;;4.43;2.30;;;0.00;99.90;;;;;;2082651;28;20192;-68
2021/05/08 04:52:00;;;;;;;3.42;2.50;;;0.00;99.90;;;;;;2082037;28;20192;-69
2021/05/08 04:53:01;;;;;;;2.93;2.53;;;0.00;99.90;;;;;;2082103;28;20252;-68
2021/05/08 04:54:01;;;;;;;3.70;2.03;;;0.10;99.90;;;;;;2082652;28;20187;-69
2021/05/08 04:55:02;;;;;;;2.70;2.00;;;0.10;99.90;;;;;;2082684;28;20167;-69
2021/05/08 04:56:03;;;;;;;2.70;2.20;;;0.10;99.90;;;;;;2082736;28;20195;-68
2021/05/08 04:57:04;;;;;;;4.90;2.53;;;0.10;99.90;;;;;;2082738;28;20286;-69
2021/05/08 04:58:06;;;;;;;4.40;2.38;;;0.20;99.90;;;;;;2082694;28;20263;-68
2021/05/08 04:59:07;;;;;;;3.05;2.33;;;0.20;99.90;;;;;;2082407;28;20670;-68
2021/05/08 05:00:12;;;;;;;3.97;2.07;;;0.20;99.90;;;;;;2083386;28;20245;-68
2021/05/08 05:01:13;;;;;;;4.82;2.22;;;0.20;99.90;;;;;;2084003;28;20269;-69
2021/05/08 05:02:13;;;;;;;3.60;2.30;;;0.20;99.90;;;;;;2082527;28;20188;-68
2021/05/08 05:03:14;;;;;;;2.73;2.50;;;0.20;99.90;;;;;;2082222;28;20559;-68
2021/05/08 05:04:15;;;;;;;3.83;2.53;;;0.20;99.90;;;;;;2081894;28;20215;-68
2021/05/08 05:05:15;;;;;;;3.73;2.53;;;0.20;99.90;;;;;;2082668;28;20595;-68
2021/05/08 05:06:16;;;;;;;3.53;2.50;;;0.30;99.90;;;;;;2082807;28;20184;-68
2021/05/08 05:07:17;;;;;;;3.60;2.37;;;0.30;99.90;;;;;;2082811;28;20407;-68
2021/05/08 05:08:19;;;;;;;3.33;2.37;;;0.30;99.90;;;;;;2082749;28;20180;-69
2021/05/08 05:09:20;;;;;;;3.25;2.40;;;0.30;99.90;;;;;;2082555;28;20184;-69
2021/05/08 05:10:20;;;;;;;3.40;2.53;;;0.40;99.90;;;;;;2082640;28;20711;-69
2021/05/08 05:11:24;;;;;;;4.60;2.70;;;0.40;99.90;;;;;;2082534;28;20208;-68
2021/05/08 05:12:24;;;;;;;2.83;2.55;;;0.40;99.90;;;;;;2082187;28;20223;-68
2021/05/08 05:13:25;;;;;;;4.30;2.37;;;0.40;99.90;;;;;;2082433;28;20258;-68
2021/05/08 05:14:27;;;;;;;2.80;2.60;;;0.50;99.90;;;;;;2082092;28;20211;-69
2021/05/08 05:15:28;;;;;;;3.75;2.22;;;0.50;99.90;;;;;;2081600;28;20468;-68
2021/05/08 05:16:29;;;;;;;3.85;2.70;;;0.50;99.90;;;;;;2081654;28;20184;-69
2021/05/08 05:17:29;;;;;;;4.37;2.80;;;0.60;99.90;;;;;;2081701;28;20191;-68
2021/05/08 05:18:31;;;;;;;3.87;2.80;;;0.60;99.90;;;;;;2082198;28;20230;-69
2021/05/08 05:19:31;;;;;;;3.13;2.53;;;0.60;99.90;;;;;;2082416;28;20204;-68
2021/05/08 05:20:32;;;;;;;5.37;2.77;;;0.60;99.90;;;;;;2082352;28;20537;-68
2021/05/08 05:21:33;;;;;;;3.20;2.40;;;0.60;99.90;;;;;;2081984;28;20209;-68